Airport View

Enter AWOS ICAO identifier for current METAR.

ex. KFNL

K0CO 241800Z AUTO BKN005 BKN010 OVC013 M19/M26 A2969 RMK AO2 LTG DSNT N PWINO

26 Feb 2020 22:13

Frequency: 134.325

Other Area AWOS: KGNB - KCCU - KBDU - KBJC

TAF KBJC 261734Z 2618/2718 VRB03KT P6SM FEW130 FEW200 FM261900 29010KT P6SM SCT130 FM262300 26018G26KT P6SM SCT130 FM270700 26005KT P6SM SCT130 FM271600 02010KT P6SM FEW100